Time;durP1;ratioP1;P1;durP2;ratioP2;P2;SDS_P1;SDS_P2;PMS_P1;PMS_P2;Temp;Humidity;BMP_temperature;BMP_pressure;BME280_temperature;BME280_humidity;BME280_pressure;Samples;Min_cycle;Max_cycle;Signal;HPM_P1;HPM_P2
2023/12/19 00:01:09;;;;;;;20.97;14.10;;;;;;;;;;5105344;28;20819;-79
2023/12/19 00:03:38;;;;;;;27.30;15.93;;;;;;;;;;5109260;28;20846;-78
2023/12/19 00:06:06;;;;;;;27.10;14.10;;;;;;;;;;5107512;28;20459;-80
2023/12/19 00:08:35;;;;;;;19.03;11.33;;;;;;;;;;5108278;28;20467;-79
2023/12/19 00:11:03;;;;;;;25.17;15.07;;;;;;;;;;5106958;28;20504;-79
2023/12/19 00:13:30;;;;;;;24.63;13.33;;;;;;;;;;5101489;28;20800;-79
2023/12/19 00:15:58;;;;;;;22.47;15.83;;;;;;;;;;5098953;28;20575;-79
2023/12/19 00:18:26;;;;;;;24.87;13.80;;;;;;;;;;5099966;28;20506;-79
2023/12/19 00:20:53;;;;;;;20.70;13.23;;;;;;;;;;5100163;28;20519;-79
2023/12/19 00:23:21;;;;;;;24.03;13.63;;;;;;;;;;5099286;28;20882;-78
2023/12/19 00:25:50;;;;;;;20.53;12.83;;;;;;;;;;5102947;28;20469;-79
2023/12/19 00:28:17;;;;;;;25.30;14.70;;;;;;;;;;5104212;28;20525;-78
2023/12/19 00:30:45;;;;;;;18.63;11.67;;;;;;;;;;5105085;28;20518;-78
2023/12/19 00:33:12;;;;;;;22.77;13.97;;;;;;;;;;5105746;28;20438;-79
2023/12/19 00:35:40;;;;;;;23.37;13.63;;;;;;;;;;5105456;28;20471;-78
2023/12/19 00:38:07;;;;;;;13.47;8.90;;;;;;;;;;5102171;28;20501;-77
2023/12/19 00:40:36;;;;;;;14.67;8.47;;;;;;;;;;5098204;28;20458;-78
2023/12/19 00:43:08;;;;;;;20.70;11.20;;;;;;;;;;5099624;28;20458;-78
2023/12/19 00:45:36;;;;;;;25.30;14.83;;;;;;;;;;5101476;28;20438;-77
2023/12/19 00:48:03;;;;;;;28.57;15.97;;;;;;;;;;5099685;28;20490;-77
2023/12/19 00:50:31;;;;;;;25.83;14.80;;;;;;;;;;5101742;28;20446;-77
2023/12/19 00:52:59;;;;;;;22.77;14.27;;;;;;;;;;5102286;28;20461;-78
2023/12/19 00:55:26;;;;;;;22.10;13.90;;;;;;;;;;5103137;28;20465;-79
2023/12/19 00:57:54;;;;;;;21.27;12.70;;;;;;;;;;5107089;28;20447;-79
2023/12/19 01:00:23;;;;;;;21.20;12.33;;;;;;;;;;5107594;28;20532;-78
2023/12/19 01:02:50;;;;;;;23.10;13.33;;;;;;;;;;5107150;28;20951;-78
2023/12/19 01:05:18;;;;;;;16.40;8.93;;;;;;;;;;5107207;28;20454;-79
2023/12/19 01:07:45;;;;;;;19.90;12.70;;;;;;;;;;5110024;28;20919;-80
2023/12/19 01:10:16;;;;;;;17.83;10.10;;;;;;;;;;5111148;28;20486;-80
2023/12/19 01:12:43;;;;;;;23.30;13.87;;;;;;;;;;5109258;28;20447;-79
2023/12/19 01:15:17;;;;;;;19.50;12.83;;;;;;;;;;5110083;28;20451;-78
2023/12/19 01:17:46;;;;;;;22.07;14.00;;;;;;;;;;5110546;28;20461;-78
2023/12/19 01:20:15;;;;;;;22.10;12.97;;;;;;;;;;5105801;28;20550;-78
2023/12/19 01:22:43;;;;;;;15.50;9.70;;;;;;;;;;5108872;28;20450;-78
2023/12/19 01:25:10;;;;;;;21.27;13.47;;;;;;;;;;5108970;28;20458;-78
2023/12/19 01:27:38;;;;;;;19.87;11.87;;;;;;;;;;5109148;28;20447;-79
2023/12/19 01:30:09;;;;;;;17.93;11.80;;;;;;;;;;5110118;28;20458;-79
2023/12/19 01:32:36;;;;;;;22.07;11.90;;;;;;;;;;5105423;28;20456;-79
2023/12/19 01:35:05;;;;;;;16.60;10.97;;;;;;;;;;5105406;28;20458;-78
2023/12/19 01:37:33;;;;;;;16.40;10.47;;;;;;;;;;5105486;28;20450;-78
2023/12/19 01:40:00;;;;;;;20.33;11.20;;;;;;;;;;5106211;28;20735;-78
2023/12/19 01:42:27;;;;;;;17.30;9.30;;;;;;;;;;5107737;28;20475;-79
2023/12/19 01:45:08;;;;;;;14.40;9.80;;;;;;;;;;5108954;28;20447;-78
2023/12/19 01:47:36;;;;;;;15.17;9.83;;;;;;;;;;5108239;28;20541;-80
2023/12/19 01:50:09;;;;;;;14.13;8.13;;;;;;;;;;5107088;28;20458;-78
2023/12/19 01:52:37;;;;;;;12.73;9.00;;;;;;;;;;5106904;28;21143;-79
2023/12/19 01:55:04;;;;;;;11.90;5.37;;;;;;;;;;5109332;28;20466;-79
2023/12/19 01:57:32;;;;;;;11.80;7.30;;;;;;;;;;5109547;28;20455;-79
2023/12/19 01:59:59;;;;;;;12.27;9.00;;;;;;;;;;5110189;28;20458;-79
2023/12/19 02:02:27;;;;;;;13.40;7.77;;;;;;;;;;5107852;28;20490;-79
2023/12/19 02:04:55;;;;;;;12.40;7.20;;;;;;;;;;5108422;28;20458;-79
2023/12/19 02:07:24;;;;;;;13.90;8.60;;;;;;;;;;5106948;28;20455;-78
2023/12/19 02:09:51;;;;;;;11.80;7.33;;;;;;;;;;5105676;28;20446;-78
2023/12/19 02:12:19;;;;;;;12.43;7.53;;;;;;;;;;5108869;28;20442;-78
2023/12/19 02:14:46;;;;;;;13.43;8.50;;;;;;;;;;5108882;28;20483;-78
2023/12/19 02:17:14;;;;;;;10.03;7.37;;;;;;;;;;5109101;28;20466;-78
2023/12/19 02:19:44;;;;;;;12.80;9.00;;;;;;;;;;5108017;28;20454;-78
2023/12/19 02:22:12;;;;;;;8.93;6.47;;;;;;;;;;5108666;28;20572;-79
2023/12/19 02:24:41;;;;;;;12.30;7.73;;;;;;;;;;5109073;28;20451;-79
2023/12/19 02:27:08;;;;;;;9.97;6.73;;;;;;;;;;5109195;28;20463;-79
2023/12/19 02:29:36;;;;;;;15.00;8.13;;;;;;;;;;5108362;28;20549;-78
2023/12/19 02:32:03;;;;;;;11.93;7.47;;;;;;;;;;5105733;28;20469;-78
2023/12/19 02:34:31;;;;;;;11.53;8.20;;;;;;;;;;5104482;28;20450;-78
2023/12/19 02:36:58;;;;;;;11.70;6.33;;;;;;;;;;5103693;28;20473;-78
2023/12/19 02:39:26;;;;;;;11.87;7.57;;;;;;;;;;5103073;28;20880;-77
2023/12/19 02:41:54;;;;;;;12.30;7.50;;;;;;;;;;5104762;28;20497;-78
2023/12/19 02:44:22;;;;;;;12.30;7.03;;;;;;;;;;5104154;28;20926;-79
2023/12/19 02:46:49;;;;;;;8.67;5.47;;;;;;;;;;5108929;28;20451;-79
2023/12/19 02:49:17;;;;;;;10.03;6.27;;;;;;;;;;5108809;28;20445;-79
2023/12/19 02:51:44;;;;;;;10.57;6.03;;;;;;;;;;5108621;28;20501;-79
2023/12/19 02:54:12;;;;;;;7.63;4.70;;;;;;;;;;5108745;28;20456;-78
2023/12/19 02:56:39;;;;;;;8.23;4.43;;;;;;;;;;5108327;28;20458;-79
2023/12/19 02:59:08;;;;;;;11.13;5.17;;;;;;;;;;5105204;28;20492;-78
2023/12/19 03:01:36;;;;;;;6.20;3.80;;;;;;;;;;5106099;28;20546;-78
2023/12/19 03:04:03;;;;;;;9.77;5.30;;;;;;;;;;5106089;28;20445;-79
2023/12/19 03:06:30;;;;;;;8.73;5.63;;;;;;;;;;5109278;28;20532;-79
2023/12/19 03:08:58;;;;;;;12.63;4.97;;;;;;;;;;5107524;28;20465;-80
2023/12/19 03:11:28;;;;;;;9.23;5.27;;;;;;;;;;5104580;28;20453;-76
2023/12/19 03:13:55;;;;;;;7.37;4.60;;;;;;;;;;5103208;28;20474;-77
2023/12/19 03:16:27;;;;;;;10.80;6.50;;;;;;;;;;5102169;28;20453;-79
2023/12/19 03:18:54;;;;;;;8.43;4.53;;;;;;;;;;5098979;28;20458;-79
2023/12/19 03:21:21;;;;;;;8.87;4.97;;;;;;;;;;5098086;28;20748;-78
2023/12/19 03:23:49;;;;;;;7.57;4.83;;;;;;;;;;5099417;28;20455;-78
2023/12/19 03:26:16;;;;;;;8.57;4.40;;;;;;;;;;5099407;28;20451;-78
2023/12/19 03:28:43;;;;;;;5.90;3.30;;;;;;;;;;5098303;28;20442;-78
2023/12/19 03:31:12;;;;;;;5.63;3.07;;;;;;;;;;5098232;28;20453;-77
2023/12/19 03:33:41;;;;;;;10.00;4.13;;;;;;;;;;5101197;28;20896;-78
2023/12/19 03:36:08;;;;;;;7.00;4.43;;;;;;;;;;5105623;28;20457;-79
2023/12/19 03:38:39;;;;;;;6.83;4.43;;;;;;;;;;5107436;28;20454;-78
2023/12/19 03:41:07;;;;;;;6.50;4.53;;;;;;;;;;5106075;28;20486;-78
2023/12/19 03:43:34;;;;;;;9.67;5.10;;;;;;;;;;5105783;28;20446;-79
2023/12/19 03:46:04;;;;;;;6.63;4.13;;;;;;;;;;5108220;28;20459;-78
2023/12/19 03:48:31;;;;;;;7.30;4.40;;;;;;;;;;5106132;28;20471;-79
2023/12/19 03:51:00;;;;;;;6.40;3.90;;;;;;;;;;5106125;28;20482;-79
2023/12/19 03:53:27;;;;;;;6.13;4.13;;;;;;;;;;5105241;28;20823;-78
2023/12/19 03:55:55;;;;;;;8.07;4.90;;;;;;;;;;5105514;28;20455;-78
2023/12/19 03:58:23;;;;;;;5.53;4.27;;;;;;;;;;5106698;28;20451;-78
2023/12/19 04:00:50;;;;;;;9.30;4.67;;;;;;;;;;5098737;28;20489;-78
2023/12/19 04:03:18;;;;;;;7.00;4.90;;;;;;;;;;5097658;28;20482;-78
2023/12/19 04:05:45;;;;;;;6.80;5.10;;;;;;;;;;5100540;28;20451;-78
2023/12/19 04:08:14;;;;;;;6.40;3.73;;;;;;;;;;5100076;28;20496;-78
2023/12/19 04:10:41;;;;;;;7.93;5.00;;;;;;;;;;5100643;28;20555;-78
2023/12/19 04:13:08;;;;;;;7.80;5.33;;;;;;;;;;5099897;28;20447;-78
2023/12/19 04:15:36;;;;;;;7.87;3.90;;;;;;;;;;5102778;28;20466;-78
2023/12/19 04:18:03;;;;;;;5.57;3.53;;;;;;;;;;5103904;28;20480;-77
2023/12/19 04:20:31;;;;;;;6.80;4.10;;;;;;;;;;5102174;28;20527;-78
2023/12/19 04:22:58;;;;;;;8.07;4.63;;;;;;;;;;5100756;28;20759;-77
2023/12/19 04:25:27;;;;;;;7.10;4.50;;;;;;;;;;5103751;28;20439;-79
2023/12/19 04:27:55;;;;;;;7.10;4.67;;;;;;;;;;5106179;28;20489;-79
2023/12/19 04:30:23;;;;;;;9.20;4.10;;;;;;;;;;5108046;28;20517;-78
2023/12/19 04:32:50;;;;;;;8.07;4.90;;;;;;;;;;5107980;28;20450;-80
2023/12/19 04:35:17;;;;;;;8.20;4.93;;;;;;;;;;5107970;28;20469;-79
2023/12/19 04:37:45;;;;;;;8.20;5.60;;;;;;;;;;5108153;28;20446;-78
2023/12/19 04:40:15;;;;;;;5.80;3.90;;;;;;;;;;5107119;28;20826;-78
2023/12/19 04:42:43;;;;;;;8.50;4.23;;;;;;;;;;5108554;28;20491;-78
2023/12/19 04:45:11;;;;;;;8.97;5.73;;;;;;;;;;5109263;28;20469;-76
2023/12/19 04:47:38;;;;;;;8.10;5.37;;;;;;;;;;5107226;28;20466;-78
2023/12/19 04:50:09;;;;;;;7.60;5.70;;;;;;;;;;5104782;28;20450;-77
2023/12/19 04:52:40;;;;;;;16.17;5.80;;;;;;;;;;5106701;28;20565;-78
2023/12/19 04:55:07;;;;;;;8.10;5.30;;;;;;;;;;5105420;28;20803;-78
2023/12/19 04:57:35;;;;;;;7.00;4.40;;;;;;;;;;5106869;28;20461;-78
2023/12/19 05:00:11;;;;;;;7.47;5.10;;;;;;;;;;5107524;28;21095;-78
2023/12/19 05:02:39;;;;;;;7.80;5.33;;;;;;;;;;5112535;28;20527;-79
2023/12/19 05:05:06;;;;;;;8.17;5.27;;;;;;;;;;5113002;28;20461;-78
2023/12/19 05:07:34;;;;;;;7.30;4.90;;;;;;;;;;5111762;28;20455;-78
2023/12/19 05:10:08;;;;;;;8.00;4.80;;;;;;;;;;5110399;28;20847;-79
2023/12/19 05:12:36;;;;;;;8.37;6.17;;;;;;;;;;5110504;28;20454;-79
2023/12/19 05:15:05;;;;;;;7.70;5.50;;;;;;;;;;5110573;28;20443;-79
2023/12/19 05:17:32;;;;;;;7.17;4.77;;;;;;;;;;5111443;28;20431;-79
2023/12/19 05:20:09;;;;;;;6.43;4.63;;;;;;;;;;5110843;28;20512;-78
2023/12/19 05:22:36;;;;;;;4.70;3.20;;;;;;;;;;5108472;28;20501;-78
2023/12/19 05:25:04;;;;;;;7.93;4.23;;;;;;;;;;5106319;28;20739;-78
2023/12/19 05:27:31;;;;;;;7.53;5.77;;;;;;;;;;5105348;28;20462;-78
2023/12/19 05:29:59;;;;;;;7.33;4.10;;;;;;;;;;5106726;28;20449;-79
2023/12/19 05:32:27;;;;;;;5.70;4.40;;;;;;;;;;5103363;28;20512;-78
2023/12/19 05:34:55;;;;;;;6.90;5.00;;;;;;;;;;5103073;28;20463;-78
2023/12/19 05:37:22;;;;;;;7.83;4.97;;;;;;;;;;5103581;28;20459;-78
2023/12/19 05:39:49;;;;;;;6.77;4.43;;;;;;;;;;5103341;28;20469;-79
2023/12/19 05:42:17;;;;;;;8.30;4.80;;;;;;;;;;5109050;28;20487;-78
2023/12/19 05:44:44;;;;;;;7.87;4.20;;;;;;;;;;5108144;28;20454;-78
2023/12/19 05:47:12;;;;;;;9.13;5.00;;;;;;;;;;5103025;28;20719;-75
2023/12/19 05:49:43;;;;;;;6.37;4.23;;;;;;;;;;5103793;28;20469;-78
2023/12/19 05:52:11;;;;;;;7.80;5.90;;;;;;;;;;5104672;28;20491;-79
2023/12/19 05:54:38;;;;;;;6.23;4.30;;;;;;;;;;5102903;28;20513;-79
2023/12/19 05:57:06;;;;;;;5.97;4.10;;;;;;;;;;5103992;28;20465;-79
2023/12/19 05:59:33;;;;;;;5.90;4.30;;;;;;;;;;5104510;28;20645;-78
2023/12/19 06:02:01;;;;;;;6.60;4.20;;;;;;;;;;5107966;28;20518;-77
2023/12/19 06:04:28;;;;;;;6.00;4.10;;;;;;;;;;5106614;28;20510;-79
2023/12/19 06:06:57;;;;;;;6.53;4.40;;;;;;;;;;5109091;28;20463;-78
2023/12/19 06:09:24;;;;;;;5.70;3.70;;;;;;;;;;5111729;28;20451;-79
2023/12/19 06:11:52;;;;;;;5.13;4.00;;;;;;;;;;5112635;28;20455;-79
2023/12/19 06:14:19;;;;;;;6.80;4.07;;;;;;;;;;5109682;28;20438;-78
2023/12/19 06:16:47;;;;;;;5.73;3.97;;;;;;;;;;5106558;28;20462;-78
2023/12/19 06:19:15;;;;;;;6.80;4.13;;;;;;;;;;5097886;28;20486;-77
2023/12/19 06:21:42;;;;;;;5.80;3.70;;;;;;;;;;5097253;28;20462;-78
2023/12/19 06:24:11;;;;;;;6.70;3.83;;;;;;;;;;5099083;28;20496;-77
2023/12/19 06:26:39;;;;;;;5.30;3.40;;;;;;;;;;5105258;28;20449;-78
2023/12/19 06:29:08;;;;;;;4.83;3.53;;;;;;;;;;5099387;28;20464;-78
2023/12/19 06:31:43;;;;;;;7.27;4.30;;;;;;;;;;5101703;28;20524;-78
2023/12/19 06:34:10;;;;;;;5.27;3.23;;;;;;;;;;5097301;28;20457;-77
2023/12/19 06:36:40;;;;;;;4.37;2.90;;;;;;;;;;5100886;28;20462;-79
2023/12/19 06:39:08;;;;;;;4.77;2.80;;;;;;;;;;5099495;28;20466;-79
2023/12/19 06:41:37;;;;;;;4.47;2.60;;;;;;;;;;5103258;28;20438;-78
2023/12/19 06:44:05;;;;;;;4.90;3.10;;;;;;;;;;5105001;28;20841;-79
2023/12/19 06:46:32;;;;;;;4.93;2.60;;;;;;;;;;5102201;28;20553;-78
2023/12/19 06:48:59;;;;;;;5.93;2.40;;;;;;;;;;5101342;28;20455;-78
2023/12/19 06:51:27;;;;;;;5.20;2.60;;;;;;;;;;5102295;28;20482;-78
2023/12/19 06:53:55;;;;;;;3.90;2.10;;;;;;;;;;5092377;28;20878;-77
2023/12/19 06:56:26;;;;;;;4.60;2.13;;;;;;;;;;5093782;28;20432;-78
2023/12/19 06:58:55;;;;;;;3.60;2.00;;;;;;;;;;5091121;28;20520;-77
2023/12/19 07:01:23;;;;;;;3.87;2.17;;;;;;;;;;5094547;28;20493;-78
2023/12/19 07:03:50;;;;;;;3.83;2.07;;;;;;;;;;5101537;28;20491;-80
2023/12/19 07:06:18;;;;;;;3.20;1.80;;;;;;;;;;5100634;28;20462;-79
2023/12/19 07:08:45;;;;;;;2.93;1.53;;;;;;;;;;5104477;28;20472;-79
2023/12/19 07:11:13;;;;;;;2.77;1.50;;;;;;;;;;5101594;28;20439;-79
2023/12/19 07:13:41;;;;;;;2.93;1.40;;;;;;;;;;5099065;28;20452;-78
2023/12/19 07:16:14;;;;;;;3.00;1.80;;;;;;;;;;5102975;28;20465;-80
2023/12/19 07:18:41;;;;;;;2.83;1.50;;;;;;;;;;5100404;28;20486;-77
2023/12/19 07:21:09;;;;;;;3.13;1.50;;;;;;;;;;5097382;28;20451;-77
2023/12/19 07:23:37;;;;;;;2.47;1.20;;;;;;;;;;5097496;28;20532;-78
2023/12/19 07:26:05;;;;;;;2.90;1.20;;;;;;;;;;5101236;28;20506;-78
2023/12/19 07:28:33;;;;;;;4.30;1.80;;;;;;;;;;5095897;28;20454;-78
2023/12/19 07:31:00;;;;;;;3.37;1.30;;;;;;;;;;5098140;28;20451;-78
2023/12/19 07:33:29;;;;;;;4.53;1.77;;;;;;;;;;5097117;28;20572;-78
2023/12/19 07:35:56;;;;;;;3.10;1.40;;;;;;;;;;5100812;28;20953;-79
2023/12/19 07:38:23;;;;;;;3.03;1.60;;;;;;;;;;5102002;28;20738;-79
2023/12/19 07:40:51;;;;;;;2.80;1.50;;;;;;;;;;5104875;28;20473;-80
2023/12/19 07:43:18;;;;;;;3.00;1.43;;;;;;;;;;5103944;28;20479;-79
2023/12/19 07:45:46;;;;;;;3.77;1.87;;;;;;;;;;5104484;28;20774;-79
2023/12/19 07:48:15;;;;;;;3.03;1.40;;;;;;;;;;5107327;28;20457;-78
2023/12/19 07:50:44;;;;;;;2.57;1.20;;;;;;;;;;5105991;28;20468;-79
2023/12/19 07:53:11;;;;;;;2.70;1.50;;;;;;;;;;5104641;28;20454;-80
2023/12/19 07:55:39;;;;;;;2.97;1.50;;;;;;;;;;5084705;28;20470;-78
2023/12/19 07:58:07;;;;;;;2.83;1.50;;;;;;;;;;5105247;28;20546;-78
2023/12/19 08:00:35;;;;;;;2.50;1.20;;;;;;;;;;5088256;28;20446;-78
2023/12/19 08:03:04;;;;;;;3.00;1.30;;;;;;;;;;5105967;28;20526;-79
2023/12/19 08:05:31;;;;;;;2.80;1.33;;;;;;;;;;5100000;28;20522;-79
2023/12/19 08:08:00;;;;;;;3.60;2.00;;;;;;;;;;5106542;28;20447;-78
2023/12/19 08:10:28;;;;;;;3.17;1.57;;;;;;;;;;5104847;28;20581;-77
2023/12/19 08:12:56;;;;;;;2.83;1.53;;;;;;;;;;5097341;28;20458;-78
2023/12/19 08:15:24;;;;;;;2.57;1.43;;;;;;;;;;5100729;28;20458;-78
2023/12/19 08:17:51;;;;;;;4.83;2.57;;;;;;;;;;5104309;28;20481;-79
2023/12/19 08:20:19;;;;;;;4.60;2.50;;;;;;;;;;5105167;28;20552;-79
2023/12/19 08:22:47;;;;;;;7.27;4.30;;;;;;;;;;5089737;28;20467;-80
2023/12/19 08:25:16;;;;;;;5.03;2.70;;;;;;;;;;5083482;28;20461;-77
2023/12/19 08:27:44;;;;;;;3.10;1.53;;;;;;;;;;5086757;28;20452;-78
2023/12/19 08:30:12;;;;;;;2.70;1.30;;;;;;;;;;5088361;28;20525;-77
2023/12/19 08:32:41;;;;;;;3.10;1.50;;;;;;;;;;5086844;28;20459;-79
2023/12/19 08:35:10;;;;;;;3.70;1.77;;;;;;;;;;5095190;28;20446;-79
2023/12/19 08:37:37;;;;;;;3.73;1.53;;;;;;;;;;5101492;28;20458;-78
2023/12/19 08:40:09;;;;;;;8.83;5.90;;;;;;;;;;5100086;28;20458;-79
2023/12/19 08:42:41;;;;;;;2.97;1.50;;;;;;;;;;5102501;28;20451;-77
2023/12/19 08:45:22;;;;;;;4.30;2.47;;;;;;;;;;5103898;28;20439;-79
2023/12/19 08:47:50;;;;;;;7.63;5.27;;;;;;;;;;5105218;28;20450;-80
2023/12/19 08:50:18;;;;;;;2.30;1.10;;;;;;;;;;5105300;28;20458;-79
2023/12/19 08:52:47;;;;;;;2.50;1.17;;;;;;;;;;5104347;28;20462;-79
2023/12/19 08:55:15;;;;;;;2.73;1.23;;;;;;;;;;5105734;28;20455;-78
2023/12/19 08:57:45;;;;;;;3.77;2.07;;;;;;;;;;5106181;28;20445;-78
2023/12/19 09:00:18;;;;;;;3.03;1.60;;;;;;;;;;5103378;28;20550;-77
2023/12/19 09:02:46;;;;;;;2.67;1.20;;;;;;;;;;5106782;28;20462;-79
2023/12/19 09:05:16;;;;;;;3.63;1.90;;;;;;;;;;5107677;28;20478;-79
2023/12/19 09:07:44;;;;;;;3.03;1.40;;;;;;;;;;5107475;28;20438;-78
2023/12/19 09:10:16;;;;;;;2.30;0.80;;;;;;;;;;5107002;28;20455;-78
2023/12/19 09:12:48;;;;;;;3.43;1.40;;;;;;;;;;5104900;28;20450;-78
2023/12/19 09:15:35;;;;;;;4.80;2.33;;;;;;;;;;5105875;28;20706;-77
2023/12/19 09:18:15;;;;;;;3.03;1.13;;;;;;;;;;5104591;28;20445;-79
2023/12/19 09:20:43;;;;;;;2.20;1.00;;;;;;;;;;5107989;28;20533;-78
2023/12/19 09:23:10;;;;;;;2.80;1.30;;;;;;;;;;5107733;28;20574;-78
2023/12/19 09:25:38;;;;;;;2.70;1.03;;;;;;;;;;5101665;28;20495;-79
2023/12/19 09:28:10;;;;;;;2.60;1.30;;;;;;;;;;5102391;28;20446;-79
2023/12/19 09:30:38;;;;;;;3.77;1.40;;;;;;;;;;5101309;28;20451;-78
2023/12/19 09:33:06;;;;;;;2.70;1.10;;;;;;;;;;5106471;28;20448;-80
2023/12/19 09:35:33;;;;;;;2.10;0.90;;;;;;;;;;5104853;28;20746;-79
2023/12/19 09:38:02;;;;;;;2.40;0.97;;;;;;;;;;5108236;28;20451;-80
2023/12/19 09:40:30;;;;;;;2.67;1.27;;;;;;;;;;5106587;28;20458;-78
2023/12/19 09:43:07;;;;;;;2.73;1.30;;;;;;;;;;5104108;28;20528;-80
2023/12/19 09:45:36;;;;;;;2.53;1.03;;;;;;;;;;5107091;28;20454;-80
2023/12/19 09:48:04;;;;;;;2.67;1.13;;;;;;;;;;5106513;28;20439;-83
2023/12/19 09:50:34;;;;;;;3.20;1.07;;;;;;;;;;5105526;28;20444;-79
2023/12/19 09:53:02;;;;;;;2.80;1.30;;;;;;;;;;5104007;28;20499;-79
2023/12/19 09:55:33;;;;;;;4.70;1.87;;;;;;;;;;5104596;28;20485;-79
2023/12/19 09:58:02;;;;;;;2.43;1.03;;;;;;;;;;5106667;28;20814;-79
2023/12/19 10:00:32;;;;;;;2.07;0.90;;;;;;;;;;5107107;28;20522;-79
2023/12/19 10:03:02;;;;;;;2.53;1.00;;;;;;;;;;5106272;28;20855;-78
2023/12/19 10:05:30;;;;;;;2.33;0.80;;;;;;;;;;5103349;28;20557;-78
2023/12/19 10:07:58;;;;;;;2.13;0.80;;;;;;;;;;5104392;28;20447;-78
2023/12/19 10:10:46;;;;;;;2.47;1.07;;;;;;;;;;5109419;28;20442;-78
2023/12/19 10:13:25;;;;;;;3.07;1.50;;;;;;;;;;5101750;28;20458;-78
2023/12/19 10:16:00;;;;;;;4.70;1.80;;;;;;;;;;5105070;28;20470;-79
2023/12/19 10:18:33;;;;;;;2.90;1.60;;;;;;;;;;5104083;28;20460;-77
2023/12/19 10:21:28;;;;;;;4.60;1.97;;;;;;;;;;5104554;28;21045;-77
2023/12/19 10:24:12;;;;;;;6.97;2.37;;;;;;;;;;5107081;28;20508;-78
2023/12/19 10:26:42;;;;;;;2.67;1.37;;;;;;;;;;5104341;28;20426;-78
2023/12/19 10:29:14;;;;;;;4.17;1.47;;;;;;;;;;5104346;28;20442;-77
2023/12/19 10:31:48;;;;;;;2.60;1.07;;;;;;;;;;5103268;28;20467;-77
2023/12/19 10:34:25;;;;;;;2.83;0.90;;;;;;;;;;5105314;28;20440;-78
2023/12/19 10:36:53;;;;;;;2.20;0.90;;;;;;;;;;5105246;28;20831;-79
2023/12/19 10:39:20;;;;;;;2.70;1.20;;;;;;;;;;5103883;28;20440;-78
2023/12/19 10:41:47;;;;;;;2.27;0.90;;;;;;;;;;5102289;28;20512;-78
2023/12/19 10:44:15;;;;;;;2.67;1.13;;;;;;;;;;5101177;28;20483;-80
2023/12/19 10:46:42;;;;;;;2.50;1.17;;;;;;;;;;5104229;28;20452;-78
2023/12/19 10:49:11;;;;;;;4.07;1.40;;;;;;;;;;5102020;28;20454;-77
2023/12/19 10:51:42;;;;;;;4.80;1.20;;;;;;;;;;5107743;28;20494;-78
2023/12/19 10:54:10;;;;;;;5.60;2.30;;;;;;;;;;5106879;28;20503;-77
2023/12/19 10:56:47;;;;;;;3.80;2.13;;;;;;;;;;5107009;28;21002;-77
2023/12/19 10:59:18;;;;;;;3.13;1.60;;;;;;;;;;5106741;28;20458;-79
2023/12/19 11:01:48;;;;;;;4.00;1.50;;;;;;;;;;5108298;28;20483;-78
2023/12/19 11:04:17;;;;;;;2.80;1.33;;;;;;;;;;5106521;28;20506;-81
2023/12/19 11:06:50;;;;;;;3.33;1.40;;;;;;;;;;5105462;28;20932;-78
2023/12/19 11:12:19;;;;;;;2.33;0.90;;;;;;;;;;5105092;28;20466;-77
2023/12/19 11:15:01;;;;;;;2.10;0.70;;;;;;;;;;5103187;28;20434;-78
2023/12/19 11:17:32;;;;;;;3.10;0.80;;;;;;;;;;5103413;28;20447;-78
2023/12/19 11:20:09;;;;;;;2.60;1.37;;;;;;;;;;5106778;28;20440;-79
2023/12/19 11:22:42;;;;;;;2.50;1.00;;;;;;;;;;5100445;28;20543;-79
2023/12/19 11:25:15;;;;;;;2.40;0.93;;;;;;;;;;5104332;28;20456;-78
